sensor_id;sensor_type;location;lat;lon;timestamp;noise_LAeq;noise_LA_min;noise_LA_max;noise_LA01;noise_LA95
67324;Laerm;57667;51.438;5.968;2023-04-03T00:00:04;30.22;28.90;32.72;;
67324;Laerm;57667;51.438;5.968;2023-04-03T00:00:15;30.21;29.29;31.30;;
67324;Laerm;57667;51.438;5.968;2023-04-03T00:00:25;30.50;29.45;31.52;;
67324;Laerm;57667;51.438;5.968;2023-04-03T00:00:36;31.27;29.94;33.26;;
67324;Laerm;57667;51.438;5.968;2023-04-03T00:00:46;31.52;30.04;33.28;;
67324;Laerm;57667;51.438;5.968;2023-04-03T00:00:57;34.14;31.19;37.22;;
67324;Laerm;57667;51.438;5.968;2023-04-03T00:01:07;44.14;35.38;52.84;;
67324;Laerm;57667;51.438;5.968;2023-04-03T00:01:18;74.88;51.57;81.60;;
67324;Laerm;57667;51.438;5.968;2023-04-03T00:01:28;73.96;71.57;77.64;;
67324;Laerm;57667;51.438;5.968;2023-04-03T00:01:38;68.30;56.57;75.13;;
67324;Laerm;57667;51.438;5.968;2023-04-03T00:01:49;54.85;48.53;59.24;;
67324;Laerm;57667;51.438;5.968;2023-04-03T00:01:59;46.09;40.53;54.24;;
67324;Laerm;57667;51.438;5.968;2023-04-03T00:02:10;40.94;37.80;43.63;;
67324;Laerm;57667;51.438;5.968;2023-04-03T00:02:20;39.04;36.00;41.28;;
67324;Laerm;57667;51.438;5.968;2023-04-03T00:02:30;37.18;34.14;41.88;;
67324;Laerm;57667;51.438;5.968;2023-04-03T00:02:41;34.33;31.96;38.50;;
67324;Laerm;57667;51.438;5.968;2023-04-03T00:02:51;32.99;31.65;34.65;;
67324;Laerm;57667;51.438;5.968;2023-04-03T00:03:02;32.54;31.23;34.42;;
67324;Laerm;57667;51.438;5.968;2023-04-03T00:03:12;31.72;30.51;33.07;;
67324;Laerm;57667;51.438;5.968;2023-04-03T00:03:22;31.46;30.17;32.67;;
67324;Laerm;57667;51.438;5.968;2023-04-03T00:03:33;31.33;29.41;33.06;;
67324;Laerm;57667;51.438;5.968;2023-04-03T00:03:43;31.01;29.83;32.13;;
67324;Laerm;57667;51.438;5.968;2023-04-03T00:03:54;30.73;29.62;32.05;;
67324;Laerm;57667;51.438;5.968;2023-04-03T00:04:05;30.60;29.46;31.90;;
67324;Laerm;57667;51.438;5.968;2023-04-03T00:04:16;30.39;29.26;31.86;;
67324;Laerm;57667;51.438;5.968;2023-04-03T00:04:26;30.40;29.36;31.74;;
67324;Laerm;57667;51.438;5.968;2023-04-03T00:04:36;30.66;29.41;31.89;;
67324;Laerm;57667;51.438;5.968;2023-04-03T00:04:47;30.54;29.19;31.53;;
67324;Laerm;57667;51.438;5.968;2023-04-03T00:04:57;30.78;29.56;36.42;;
67324;Laerm;57667;51.438;5.968;2023-04-03T00:05:07;30.46;29.02;31.67;;
67324;Laerm;57667;51.438;5.968;2023-04-03T00:05:18;30.54;29.30;31.97;;
67324;Laerm;57667;51.438;5.968;2023-04-03T00:05:28;30.53;29.58;31.89;;
67324;Laerm;57667;51.438;5.968;2023-04-03T00:05:38;30.53;29.62;32.16;;
67324;Laerm;57667;51.438;5.968;2023-04-03T00:05:49;30.67;29.29;32.78;;
67324;Laerm;57667;51.438;5.968;2023-04-03T00:05:59;31.00;29.35;32.31;;
67324;Laerm;57667;51.438;5.968;2023-04-03T00:06:10;30.86;29.57;32.07;;
67324;Laerm;57667;51.438;5.968;2023-04-03T00:06:22;30.68;29.56;32.02;;
67324;Laerm;57667;51.438;5.968;2023-04-03T00:06:32;30.59;29.55;31.73;;
67324;Laerm;57667;51.438;5.968;2023-04-03T00:06:43;30.63;29.13;31.91;;
67324;Laerm;57667;51.438;5.968;2023-04-03T00:06:53;30.67;29.62;31.98;;
67324;Laerm;57667;51.438;5.968;2023-04-03T00:07:04;30.67;29.49;31.87;;
67324;Laerm;57667;51.438;5.968;2023-04-03T00:07:14;30.77;29.51;32.25;;
67324;Laerm;57667;51.438;5.968;2023-04-03T00:07:25;31.56;29.98;33.99;;
67324;Laerm;57667;51.438;5.968;2023-04-03T00:07:35;32.00;30.41;34.11;;
67324;Laerm;57667;51.438;5.968;2023-04-03T00:07:45;31.96;29.48;33.55;;
67324;Laerm;57667;51.438;5.968;2023-04-03T00:07:56;31.24;29.26;32.62;;
67324;Laerm;57667;51.438;5.968;2023-04-03T00:08:06;30.80;29.41;32.07;;
67324;Laerm;57667;51.438;5.968;2023-04-03T00:08:18;30.81;29.37;32.68;;
67324;Laerm;57667;51.438;5.968;2023-04-03T00:08:28;30.63;29.19;31.94;;
67324;Laerm;57667;51.438;5.968;2023-04-03T00:08:41;30.52;29.25;33.35;;
67324;Laerm;57667;51.438;5.968;2023-04-03T00:08:51;30.45;29.15;32.13;;
67324;Laerm;57667;51.438;5.968;2023-04-03T00:09:02;30.62;29.39;31.88;;
67324;Laerm;57667;51.438;5.968;2023-04-03T00:09:12;30.70;29.41;35.07;;
67324;Laerm;57667;51.438;5.968;2023-04-03T00:09:23;30.55;29.29;34.18;;
67324;Laerm;57667;51.438;5.968;2023-04-03T00:09:33;30.37;29.40;31.48;;
67324;Laerm;57667;51.438;5.968;2023-04-03T00:09:43;30.39;29.27;31.63;;
67324;Laerm;57667;51.438;5.968;2023-04-03T00:09:54;30.36;29.27;32.12;;
67324;Laerm;57667;51.438;5.968;2023-04-03T00:10:04;30.47;29.14;32.95;;
67324;Laerm;57667;51.438;5.968;2023-04-03T00:10:15;30.48;29.38;31.72;;
67324;Laerm;57667;51.438;5.968;2023-04-03T00:10:25;30.53;29.31;32.02;;
67324;Laerm;57667;51.438;5.968;2023-04-03T00:10:36;30.47;29.55;31.60;;
67324;Laerm;57667;51.438;5.968;2023-04-03T00:10:47;30.36;29.20;31.72;;
67324;Laerm;57667;51.438;5.968;2023-04-03T00:10:57;30.33;29.10;31.52;;
67324;Laerm;57667;51.438;5.968;2023-04-03T00:11:08;30.61;29.63;32.45;;
67324;Laerm;57667;51.438;5.968;2023-04-03T00:11:19;30.65;29.51;32.00;;
67324;Laerm;57667;51.438;5.968;2023-04-03T00:11:30;30.45;29.41;31.69;;
67324;Laerm;57667;51.438;5.968;2023-04-03T00:11:41;30.40;29.25;31.54;;
67324;Laerm;57667;51.438;5.968;2023-04-03T00:11:51;30.50;28.92;31.62;;
67324;Laerm;57667;51.438;5.968;2023-04-03T00:12:01;30.56;29.41;31.66;;
67324;Laerm;57667;51.438;5.968;2023-04-03T00:12:12;30.57;29.50;31.67;;
67324;Laerm;57667;51.438;5.968;2023-04-03T00:12:22;30.48;29.48;31.60;;
67324;Laerm;57667;51.438;5.968;2023-04-03T00:12:32;31.07;29.57;38.96;;
67324;Laerm;57667;51.438;5.968;2023-04-03T00:12:42;30.62;29.22;31.89;;
67324;Laerm;57667;51.438;5.968;2023-04-03T00:12:53;30.58;29.52;31.76;;
67324;Laerm;57667;51.438;5.968;2023-04-03T00:13:04;30.50;29.43;31.91;;
67324;Laerm;57667;51.438;5.968;2023-04-03T00:13:14;30.72;29.61;31.82;;
67324;Laerm;57667;51.438;5.968;2023-04-03T00:13:25;30.75;29.57;32.06;;
67324;Laerm;57667;51.438;5.968;2023-04-03T00:13:35;30.67;29.39;31.67;;
67324;Laerm;57667;51.438;5.968;2023-04-03T00:13:46;30.72;29.27;32.31;;
67324;Laerm;57667;51.438;5.968;2023-04-03T00:13:57;30.68;29.54;31.82;;
67324;Laerm;57667;51.438;5.968;2023-04-03T00:14:07;30.68;29.69;31.99;;
67324;Laerm;57667;51.438;5.968;2023-04-03T00:14:17;30.54;29.38;32.05;;
67324;Laerm;57667;51.438;5.968;2023-04-03T00:14:28;30.52;29.11;31.54;;
67324;Laerm;57667;51.438;5.968;2023-04-03T00:14:38;30.45;29.36;31.69;;
67324;Laerm;57667;51.438;5.968;2023-04-03T00:14:48;30.75;29.26;32.49;;
67324;Laerm;57667;51.438;5.968;2023-04-03T00:14:59;31.96;30.11;34.20;;
67324;Laerm;57667;51.438;5.968;2023-04-03T00:15:09;31.27;30.06;32.50;;
67324;Laerm;57667;51.438;5.968;2023-04-03T00:15:20;30.96;29.87;32.19;;
67324;Laerm;57667;51.438;5.968;2023-04-03T00:15:30;31.14;29.31;32.79;;
67324;Laerm;57667;51.438;5.968;2023-04-03T00:15:40;30.89;29.49;32.11;;
67324;Laerm;57667;51.438;5.968;2023-04-03T00:15:51;30.79;29.63;32.00;;
67324;Laerm;57667;51.438;5.968;2023-04-03T00:16:01;30.67;29.39;31.82;;
67324;Laerm;57667;51.438;5.968;2023-04-03T00:16:13;30.57;29.10;31.82;;
67324;Laerm;57667;51.438;5.968;2023-04-03T00:16:23;30.64;29.44;31.64;;
67324;Laerm;57667;51.438;5.968;2023-04-03T00:16:34;30.61;29.55;31.78;;
67324;Laerm;57667;51.438;5.968;2023-04-03T00:16:44;30.52;29.53;31.43;;
67324;Laerm;57667;51.438;5.968;2023-04-03T00:16:54;30.61;29.37;31.81;;
67324;Laerm;57667;51.438;5.968;2023-04-03T00:17:05;30.72;29.59;33.21;;
67324;Laerm;57667;51.438;5.968;2023-04-03T00:17:15;30.85;29.57;35.78;;
67324;Laerm;57667;51.438;5.968;2023-04-03T00:17:25;30.54;29.64;31.84;;
67324;Laerm;57667;51.438;5.968;2023-04-03T00:17:36;30.60;29.63;31.80;;
67324;Laerm;57667;51.438;5.968;2023-04-03T00:17:46;30.67;29.67;31.97;;
67324;Laerm;57667;51.438;5.968;2023-04-03T00:17:56;30.60;29.45;31.93;;
67324;Laerm;57667;51.438;5.968;2023-04-03T00:18:07;30.80;29.34;32.20;;
67324;Laerm;57667;51.438;5.968;2023-04-03T00:18:17;31.56;29.88;34.26;;
67324;Laerm;57667;51.438;5.968;2023-04-03T00:18:28;33.75;30.87;37.24;;
67324;Laerm;57667;51.438;5.968;2023-04-03T00:18:38;33.84;31.63;36.95;;
67324;Laerm;57667;51.438;5.968;2023-04-03T00:18:49;33.26;31.32;36.08;;
67324;Laerm;57667;51.438;5.968;2023-04-03T00:18:59;32.64;30.96;35.22;;
67324;Laerm;57667;51.438;5.968;2023-04-03T00:19:10;33.23;30.90;36.91;;
67324;Laerm;57667;51.438;5.968;2023-04-03T00:19:22;32.06;30.26;34.24;;
67324;Laerm;57667;51.438;5.968;2023-04-03T00:19:32;30.86;29.74;32.45;;
67324;Laerm;57667;51.438;5.968;2023-04-03T00:19:42;30.65;29.69;31.74;;
67324;Laerm;57667;51.438;5.968;2023-04-03T00:19:53;30.65;29.52;32.10;;
67324;Laerm;57667;51.438;5.968;2023-04-03T00:20:03;30.66;29.65;32.04;;
67324;Laerm;57667;51.438;5.968;2023-04-03T00:20:14;30.79;29.53;33.31;;
67324;Laerm;57667;51.438;5.968;2023-04-03T00:20:24;30.83;29.57;32.40;;
67324;Laerm;57667;51.438;5.968;2023-04-03T00:20:35;30.93;29.81;32.38;;
67324;Laerm;57667;51.438;5.968;2023-04-03T00:20:45;30.92;29.69;35.23;;
67324;Laerm;57667;51.438;5.968;2023-04-03T00:20:56;31.08;29.46;32.35;;
67324;Laerm;57667;51.438;5.968;2023-04-03T00:21:07;31.51;30.44;32.83;;
67324;Laerm;57667;51.438;5.968;2023-04-03T00:21:17;32.41;30.60;33.90;;
67324;Laerm;57667;51.438;5.968;2023-04-03T00:21:27;33.82;31.53;36.34;;
67324;Laerm;57667;51.438;5.968;2023-04-03T00:21:38;34.66;32.77;36.77;;
67324;Laerm;57667;51.438;5.968;2023-04-03T00:21:49;36.29;33.55;39.59;;
67324;Laerm;57667;51.438;5.968;2023-04-03T00:21:59;44.10;36.91;50.22;;
67324;Laerm;57667;51.438;5.968;2023-04-03T00:22:09;55.16;46.08;60.73;;
67324;Laerm;57667;51.438;5.968;2023-04-03T00:22:20;75.35;59.03;80.41;;
67324;Laerm;57667;51.438;5.968;2023-04-03T00:22:30;78.77;76.34;80.60;;
67324;Laerm;57667;51.438;5.968;2023-04-03T00:22:40;77.18;57.46;81.03;;
67324;Laerm;57667;51.438;5.968;2023-04-03T00:22:51;50.19;40.57;57.38;;
67324;Laerm;57667;51.438;5.968;2023-04-03T00:23:01;38.79;35.31;41.95;;
67324;Laerm;57667;51.438;5.968;2023-04-03T00:23:11;34.11;31.02;36.91;;
67324;Laerm;57667;51.438;5.968;2023-04-03T00:23:22;31.25;29.89;32.92;;
67324;Laerm;57667;51.438;5.968;2023-04-03T00:23:33;30.60;29.41;31.57;;
67324;Laerm;57667;51.438;5.968;2023-04-03T00:23:44;30.54;29.48;31.43;;
67324;Laerm;57667;51.438;5.968;2023-04-03T00:23:54;31.08;29.64;33.08;;
67324;Laerm;57667;51.438;5.968;2023-04-03T00:24:05;30.92;29.67;32.68;;
67324;Laerm;57667;51.438;5.968;2023-04-03T00:24:15;30.45;29.29;31.53;;
67324;Laerm;57667;51.438;5.968;2023-04-03T00:24:26;30.63;29.32;31.83;;
67324;Laerm;57667;51.438;5.968;2023-04-03T00:24:36;30.68;29.58;31.86;;
67324;Laerm;57667;51.438;5.968;2023-04-03T00:24:46;30.86;29.61;32.13;;
67324;Laerm;57667;51.438;5.968;2023-04-03T00:24:57;31.30;29.89;34.13;;
67324;Laerm;57667;51.438;5.968;2023-04-03T00:25:07;32.44;29.93;35.34;;
67324;Laerm;57667;51.438;5.968;2023-04-03T00:25:18;39.29;31.81;44.31;;
67324;Laerm;57667;51.438;5.968;2023-04-03T00:25:28;37.46;32.99;43.69;;
67324;Laerm;57667;51.438;5.968;2023-04-03T00:25:38;33.36;30.63;36.65;;
67324;Laerm;57667;51.438;5.968;2023-04-03T00:25:49;32.95;30.75;36.61;;
67324;Laerm;57667;51.438;5.968;2023-04-03T00:26:00;33.43;31.30;36.06;;
67324;Laerm;57667;51.438;5.968;2023-04-03T00:26:11;33.93;31.98;36.94;;
67324;Laerm;57667;51.438;5.968;2023-04-03T00:26:21;32.56;30.45;35.24;;
67324;Laerm;57667;51.438;5.968;2023-04-03T00:26:31;31.46;29.93;33.03;;
67324;Laerm;57667;51.438;5.968;2023-04-03T00:26:41;30.74;29.63;31.90;;
67324;Laerm;57667;51.438;5.968;2023-04-03T00:26:52;30.74;29.64;32.35;;
67324;Laerm;57667;51.438;5.968;2023-04-03T00:27:02;30.67;29.40;33.75;;
67324;Laerm;57667;51.438;5.968;2023-04-03T00:27:12;30.62;29.38;31.90;;
67324;Laerm;57667;51.438;5.968;2023-04-03T00:27:23;30.63;29.48;31.90;;
67324;Laerm;57667;51.438;5.968;2023-04-03T00:27:39;30.72;29.41;32.19;;
67324;Laerm;57667;51.438;5.968;2023-04-03T00:27:50;31.14;29.66;32.50;;
67324;Laerm;57667;51.438;5.968;2023-04-03T00:28:01;31.47;29.94;33.02;;
67324;Laerm;57667;51.438;5.968;2023-04-03T00:28:12;31.84;30.14;34.20;;
67324;Laerm;57667;51.438;5.968;2023-04-03T00:28:22;31.85;30.36;33.31;;
67324;Laerm;57667;51.438;5.968;2023-04-03T00:28:33;31.62;30.37;33.48;;
67324;Laerm;57667;51.438;5.968;2023-04-03T00:28:43;30.97;29.50;32.28;;
67324;Laerm;57667;51.438;5.968;2023-04-03T00:28:54;30.68;29.73;32.13;;
67324;Laerm;57667;51.438;5.968;2023-04-03T00:29:04;30.66;29.39;31.70;;
67324;Laerm;57667;51.438;5.968;2023-04-03T00:29:14;30.67;29.62;31.98;;
67324;Laerm;57667;51.438;5.968;2023-04-03T00:29:25;30.76;29.76;32.29;;
67324;Laerm;57667;51.438;5.968;2023-04-03T00:29:36;30.93;29.94;32.23;;
67324;Laerm;57667;51.438;5.968;2023-04-03T00:29:46;32.07;30.22;41.52;;
67324;Laerm;57667;51.438;5.968;2023-04-03T00:29:56;33.80;31.92;35.39;;
67324;Laerm;57667;51.438;5.968;2023-04-03T00:30:08;33.29;31.56;34.72;;
67324;Laerm;57667;51.438;5.968;2023-04-03T00:30:20;33.68;31.48;35.85;;
67324;Laerm;57667;51.438;5.968;2023-04-03T00:30:31;35.48;33.82;37.67;;
67324;Laerm;57667;51.438;5.968;2023-04-03T00:30:41;39.72;35.43;44.13;;
67324;Laerm;57667;51.438;5.968;2023-04-03T00:30:52;46.66;40.60;50.81;;
67324;Laerm;57667;51.438;5.968;2023-04-03T00:31:02;58.62;49.16;64.54;;
67324;Laerm;57667;51.438;5.968;2023-04-03T00:31:16;79.27;62.38;83.97;;
67324;Laerm;57667;51.438;5.968;2023-04-03T00:31:26;80.70;77.94;83.83;;
67324;Laerm;57667;51.438;5.968;2023-04-03T00:31:37;73.83;49.62;81.48;;
67324;Laerm;57667;51.438;5.968;2023-04-03T00:31:47;45.54;38.64;51.27;;
67324;Laerm;57667;51.438;5.968;2023-04-03T00:31:57;37.37;33.73;40.28;;
67324;Laerm;57667;51.438;5.968;2023-04-03T00:32:07;33.97;31.25;36.57;;
67324;Laerm;57667;51.438;5.968;2023-04-03T00:32:18;31.64;30.29;33.51;;
67324;Laerm;57667;51.438;5.968;2023-04-03T00:32:28;30.98;29.55;32.36;;
67324;Laerm;57667;51.438;5.968;2023-04-03T00:32:38;30.71;29.58;32.26;;
67324;Laerm;57667;51.438;5.968;2023-04-03T00:32:49;30.69;29.35;32.00;;
67324;Laerm;57667;51.438;5.968;2023-04-03T00:32:59;30.75;29.81;32.24;;
67324;Laerm;57667;51.438;5.968;2023-04-03T00:33:11;30.75;29.78;32.31;;
67324;Laerm;57667;51.438;5.968;2023-04-03T00:33:22;30.85;29.53;32.28;;
67324;Laerm;57667;51.438;5.968;2023-04-03T00:33:34;30.96;29.62;32.55;;
67324;Laerm;57667;51.438;5.968;2023-04-03T00:33:44;31.26;29.53;40.29;;
67324;Laerm;57667;51.438;5.968;2023-04-03T00:33:55;31.01;29.54;32.50;;
67324;Laerm;57667;51.438;5.968;2023-04-03T00:34:05;30.93;29.49;37.63;;
67324;Laerm;57667;51.438;5.968;2023-04-03T00:34:15;30.95;29.81;32.33;;
67324;Laerm;57667;51.438;5.968;2023-04-03T00:34:26;30.86;29.72;32.20;;
67324;Laerm;57667;51.438;5.968;2023-04-03T00:34:36;30.92;29.67;32.08;;
67324;Laerm;57667;51.438;5.968;2023-04-03T00:34:46;30.91;29.47;32.05;;
67324;Laerm;57667;51.438;5.968;2023-04-03T00:34:57;30.80;29.49;31.76;;
67324;Laerm;57667;51.438;5.968;2023-04-03T00:35:07;30.89;29.63;32.23;;
67324;Laerm;57667;51.438;5.968;2023-04-03T00:35:18;30.81;29.94;31.82;;
67324;Laerm;57667;51.438;5.968;2023-04-03T00:35:29;30.80;29.64;32.09;;
67324;Laerm;57667;51.438;5.968;2023-04-03T00:35:39;30.92;29.39;32.90;;
67324;Laerm;57667;51.438;5.968;2023-04-03T00:35:50;30.88;29.86;32.79;;
67324;Laerm;57667;51.438;5.968;2023-04-03T00:36:05;30.81;29.59;32.29;;
67324;Laerm;57667;51.438;5.968;2023-04-03T00:36:15;30.88;29.76;32.37;;
67324;Laerm;57667;51.438;5.968;2023-04-03T00:36:26;30.90;29.73;32.40;;
67324;Laerm;57667;51.438;5.968;2023-04-03T00:36:36;30.85;29.63;32.73;;
67324;Laerm;57667;51.438;5.968;2023-04-03T00:36:46;30.75;29.22;31.84;;
67324;Laerm;57667;51.438;5.968;2023-04-03T00:36:57;30.70;29.65;31.72;;
67324;Laerm;57667;51.438;5.968;2023-04-03T00:37:07;30.89;29.63;32.23;;
67324;Laerm;57667;51.438;5.968;2023-04-03T00:37:17;30.91;29.70;32.33;;
67324;Laerm;57667;51.438;5.968;2023-04-03T00:37:28;31.36;29.61;34.82;;
67324;Laerm;57667;51.438;5.968;2023-04-03T00:37:38;30.94;29.70;32.19;;
67324;Laerm;57667;51.438;5.968;2023-04-03T00:37:50;30.94;29.77;32.19;;
67324;Laerm;57667;51.438;5.968;2023-04-03T00:38:01;30.92;29.67;32.17;;
67324;Laerm;57667;51.438;5.968;2023-04-03T00:38:11;30.79;29.33;31.94;;
67324;Laerm;57667;51.438;5.968;2023-04-03T00:38:21;30.72;29.52;31.71;;
67324;Laerm;57667;51.438;5.968;2023-04-03T00:38:32;30.65;29.74;31.99;;
67324;Laerm;57667;51.438;5.968;2023-04-03T00:38:42;30.70;29.44;31.95;;
67324;Laerm;57667;51.438;5.968;2023-04-03T00:38:52;30.73;29.58;32.06;;
67324;Laerm;57667;51.438;5.968;2023-04-03T00:39:03;30.73;29.51;31.85;;
67324;Laerm;57667;51.438;5.968;2023-04-03T00:39:13;30.90;29.86;31.97;;
67324;Laerm;57667;51.438;5.968;2023-04-03T00:39:23;30.81;29.71;32.55;;
67324;Laerm;57667;51.438;5.968;2023-04-03T00:39:34;30.77;29.66;31.78;;
67324;Laerm;57667;51.438;5.968;2023-04-03T00:39:44;30.93;29.75;36.39;;
67324;Laerm;57667;51.438;5.968;2023-04-03T00:39:55;30.93;29.84;32.66;;
67324;Laerm;57667;51.438;5.968;2023-04-03T00:40:05;30.97;29.85;32.24;;
67324;Laerm;57667;51.438;5.968;2023-04-03T00:40:16;30.92;29.78;31.92;;
67324;Laerm;57667;51.438;5.968;2023-04-03T00:40:27;31.20;29.69;36.01;;
67324;Laerm;57667;51.438;5.968;2023-04-03T00:40:39;31.14;29.74;38.51;;
67324;Laerm;57667;51.438;5.968;2023-04-03T00:40:51;31.98;29.87;39.44;;
67324;Laerm;57667;51.438;5.968;2023-04-03T00:41:01;31.18;29.78;35.80;;
67324;Laerm;57667;51.438;5.968;2023-04-03T00:41:12;30.80;29.62;32.41;;
67324;Laerm;57667;51.438;5.968;2023-04-03T00:41:22;30.86;29.64;31.99;;
67324;Laerm;57667;51.438;5.968;2023-04-03T00:41:32;31.15;29.75;32.77;;
67324;Laerm;57667;51.438;5.968;2023-04-03T00:41:43;30.87;29.06;35.05;;
67324;Laerm;57667;51.438;5.968;2023-04-03T00:41:53;30.62;29.56;31.87;;
67324;Laerm;57667;51.438;5.968;2023-04-03T00:42:03;30.75;29.66;33.05;;
67324;Laerm;57667;51.438;5.968;2023-04-03T00:42:14;30.80;29.40;31.83;;
67324;Laerm;57667;51.438;5.968;2023-04-03T00:42:24;30.50;29.20;31.35;;
67324;Laerm;57667;51.438;5.968;2023-04-03T00:42:38;30.85;29.57;31.95;;
67324;Laerm;57667;51.438;5.968;2023-04-03T00:42:51;30.68;29.45;31.93;;
67324;Laerm;57667;51.438;5.968;2023-04-03T00:43:05;30.70;29.69;31.58;;
67324;Laerm;57667;51.438;5.968;2023-04-03T00:43:21;31.93;30.30;33.64;;
67324;Laerm;57667;51.438;5.968;2023-04-03T00:43:32;31.78;30.24;34.03;;
67324;Laerm;57667;51.438;5.968;2023-04-03T00:43:42;31.41;29.81;33.06;;
67324;Laerm;57667;51.438;5.968;2023-04-03T00:43:52;31.27;30.27;32.88;;
67324;Laerm;57667;51.438;5.968;2023-04-03T00:45:33;52.44;46.66;55.85;;
67324;Laerm;57667;51.438;5.968;2023-04-03T00:45:45;50.14;31.32;58.59;;
67324;Laerm;57667;51.438;5.968;2023-04-03T00:45:57;31.35;29.98;34.17;;
67324;Laerm;57667;51.438;5.968;2023-04-03T00:46:07;30.60;29.73;31.80;;
67324;Laerm;57667;51.438;5.968;2023-04-03T00:46:18;30.49;29.47;31.50;;
67324;Laerm;57667;51.438;5.968;2023-04-03T00:46:28;30.48;29.46;31.55;;
67324;Laerm;57667;51.438;5.968;2023-04-03T00:46:38;30.50;29.06;31.53;;
67324;Laerm;57667;51.438;5.968;2023-04-03T00:46:49;30.38;28.94;31.62;;
67324;Laerm;57667;51.438;5.968;2023-04-03T00:46:59;30.37;29.36;31.64;;
67324;Laerm;57667;51.438;5.968;2023-04-03T00:47:11;30.43;29.24;31.41;;
67324;Laerm;57667;51.438;5.968;2023-04-03T00:47:22;30.38;28.93;33.19;;
67324;Laerm;57667;51.438;5.968;2023-04-03T00:47:33;30.39;29.35;31.99;;
67324;Laerm;57667;51.438;5.968;2023-04-03T00:47:43;30.41;29.28;33.35;;
67324;Laerm;57667;51.438;5.968;2023-04-03T00:47:54;30.39;29.36;33.69;;
67324;Laerm;57667;51.438;5.968;2023-04-03T00:48:05;30.29;29.41;31.25;;
67324;Laerm;57667;51.438;5.968;2023-04-03T00:48:26;30.43;29.44;32.46;;
67324;Laerm;57667;51.438;5.968;2023-04-03T00:48:42;30.42;29.30;32.23;;
67324;Laerm;57667;51.438;5.968;2023-04-03T00:48:53;30.51;29.13;32.30;;
67324;Laerm;57667;51.438;5.968;2023-04-03T00:49:04;30.72;29.24;32.10;;
67324;Laerm;57667;51.438;5.968;2023-04-03T00:49:14;31.62;29.70;35.54;;
67324;Laerm;57667;51.438;5.968;2023-04-03T00:49:25;31.59;30.02;33.02;;
67324;Laerm;57667;51.438;5.968;2023-04-03T00:49:36;31.27;29.93;32.88;;
67324;Laerm;57667;51.438;5.968;2023-04-03T00:49:46;30.78;29.55;32.27;;
67324;Laerm;57667;51.438;5.968;2023-04-03T00:49:57;30.79;29.46;34.45;;
67324;Laerm;57667;51.438;5.968;2023-04-03T00:50:08;30.67;29.60;33.74;;
67324;Laerm;57667;51.438;5.968;2023-04-03T00:50:18;31.60;29.97;34.66;;
67324;Laerm;57667;51.438;5.968;2023-04-03T00:50:28;31.80;30.01;36.72;;
67324;Laerm;57667;51.438;5.968;2023-04-03T00:50:40;31.84;30.18;33.51;;
67324;Laerm;57667;51.438;5.968;2023-04-03T00:50:51;31.20;29.67;33.24;;
67324;Laerm;57667;51.438;5.968;2023-04-03T00:51:03;30.60;29.46;32.45;;
67324;Laerm;57667;51.438;5.968;2023-04-03T00:51:14;30.48;29.42;32.40;;
67324;Laerm;57667;51.438;5.968;2023-04-03T00:51:26;30.36;29.27;32.15;;
67324;Laerm;57667;51.438;5.968;2023-04-03T00:51:37;30.42;29.06;32.01;;
67324;Laerm;57667;51.438;5.968;2023-04-03T00:51:47;30.67;29.24;33.51;;
67324;Laerm;57667;51.438;5.968;2023-04-03T00:51:58;32.49;30.60;34.98;;
67324;Laerm;57667;51.438;5.968;2023-04-03T00:52:10;31.00;29.51;34.27;;
67324;Laerm;57667;51.438;5.968;2023-04-03T00:52:23;31.95;29.78;34.75;;
67324;Laerm;57667;51.438;5.968;2023-04-03T00:52:35;32.01;29.58;36.28;;
67324;Laerm;57667;51.438;5.968;2023-04-03T00:52:47;30.51;29.11;31.68;;
67324;Laerm;57667;51.438;5.968;2023-04-03T00:52:59;30.98;29.48;33.53;;
67324;Laerm;57667;51.438;5.968;2023-04-03T00:53:11;32.61;30.89;34.53;;
67324;Laerm;57667;51.438;5.968;2023-04-03T00:53:23;40.34;32.52;48.24;;
67324;Laerm;57667;51.438;5.968;2023-04-03T00:53:39;74.66;45.95;81.96;;
67324;Laerm;57667;51.438;5.968;2023-04-03T00:53:52;78.57;66.18;86.56;;
67324;Laerm;57667;51.438;5.968;2023-04-03T00:54:04;61.22;53.77;68.71;;
67324;Laerm;57667;51.438;5.968;2023-04-03T00:54:15;52.00;47.13;56.05;;
67324;Laerm;57667;51.438;5.968;2023-04-03T00:54:26;47.63;43.70;50.93;;
67324;Laerm;57667;51.438;5.968;2023-04-03T00:54:36;41.90;37.96;46.46;;
67324;Laerm;57667;51.438;5.968;2023-04-03T00:54:47;37.72;34.62;41.91;;
67324;Laerm;57667;51.438;5.968;2023-04-03T00:55:00;36.02;34.03;37.85;;
67324;Laerm;57667;51.438;5.968;2023-04-03T00:55:12;37.63;34.51;42.98;;
67324;Laerm;57667;51.438;5.968;2023-04-03T00:55:24;40.36;32.68;55.30;;
67324;Laerm;57667;51.438;5.968;2023-04-03T00:55:35;33.70;31.35;35.91;;
67324;Laerm;57667;51.438;5.968;2023-04-03T00:55:47;32.74;31.32;34.39;;
67324;Laerm;57667;51.438;5.968;2023-04-03T00:55:57;31.95;30.28;33.64;;
67324;Laerm;57667;51.438;5.968;2023-04-03T00:56:09;32.16;30.72;34.27;;
67324;Laerm;57667;51.438;5.968;2023-04-03T00:56:21;33.72;29.99;46.61;;
67324;Laerm;57667;51.438;5.968;2023-04-03T00:56:32;31.37;29.78;34.47;;
67324;Laerm;57667;51.438;5.968;2023-04-03T00:56:42;31.50;30.23;33.65;;
67324;Laerm;57667;51.438;5.968;2023-04-03T00:56:53;31.20;29.81;33.17;;
67324;Laerm;57667;51.438;5.968;2023-04-03T00:57:05;31.57;30.24;34.02;;
67324;Laerm;57667;51.438;5.968;2023-04-03T00:57:16;31.98;29.94;34.46;;
67324;Laerm;57667;51.438;5.968;2023-04-03T00:57:26;31.37;29.88;35.16;;
67324;Laerm;57667;51.438;5.968;2023-04-03T00:57:37;30.94;29.69;32.26;;
67324;Laerm;57667;51.438;5.968;2023-04-03T00:57:48;30.77;29.55;32.18;;
67324;Laerm;57667;51.438;5.968;2023-04-03T00:57:59;30.55;29.36;31.57;;
67324;Laerm;57667;51.438;5.968;2023-04-03T00:58:10;30.65;29.52;31.74;;
67324;Laerm;57667;51.438;5.968;2023-04-03T00:58:23;30.74;29.18;32.42;;
67324;Laerm;57667;51.438;5.968;2023-04-03T00:59:16;30.89;29.54;34.68;;
67324;Laerm;57667;51.438;5.968;2023-04-03T00:59:31;31.01;29.78;33.07;;
67324;Laerm;57667;51.438;5.968;2023-04-03T00:59:44;31.69;30.09;33.42;;
67324;Laerm;57667;51.438;5.968;2023-04-03T01:00:03;31.57;30.13;33.50;;
67324;Laerm;57667;51.438;5.968;2023-04-03T01:00:16;31.63;30.21;33.18;;
67324;Laerm;57667;51.438;5.968;2023-04-03T01:00:27;31.59;29.79;33.32;;
67324;Laerm;57667;51.438;5.968;2023-04-03T01:00:38;31.58;30.04;33.46;;
67324;Laerm;57667;51.438;5.968;2023-04-03T01:00:51;31.34;30.14;32.93;;
67324;Laerm;57667;51.438;5.968;2023-04-03T01:01:06;31.27;29.67;33.05;;
67324;Laerm;57667;51.438;5.968;2023-04-03T01:01:19;31.25;29.88;32.68;;
67324;Laerm;57667;51.438;5.968;2023-04-03T01:01:31;31.62;30.20;32.77;;
67324;Laerm;57667;51.438;5.968;2023-04-03T01:01:42;31.82;30.07;33.47;;
67324;Laerm;57667;51.438;5.968;2023-04-03T01:01:52;32.65;30.95;34.04;;
67324;Laerm;57667;51.438;5.968;2023-04-03T01:02:05;32.41;30.64;34.51;;
67324;Laerm;57667;51.438;5.968;2023-04-03T01:02:15;32.61;31.03;34.72;;
67324;Laerm;57667;51.438;5.968;2023-04-03T01:02:26;33.48;31.40;35.45;;
67324;Laerm;57667;51.438;5.968;2023-04-03T01:02:39;35.16;32.93;37.93;;
67324;Laerm;57667;51.438;5.968;2023-04-03T01:02:51;42.55;35.01;49.47;;
67324;Laerm;57667;51.438;5.968;2023-04-03T01:03:01;49.17;46.74;51.96;;
67324;Laerm;57667;51.438;5.968;2023-04-03T01:03:12;61.78;50.54;70.12;;